Time;durP1;ratioP1;P1;durP2;ratioP2;P2;SDS_P1;SDS_P2;PMS_P1;PMS_P2;Temp;Humidity;BMP_temperature;BMP_pressure;BME280_temperature;BME280_humidity;BME280_pressure;Samples;Min_cycle;Max_cycle;Signal;HPM_P1;HPM_P2
2023/09/16 00:00:23;;;;;;;13.02;7.25;;;;;;;19.39;67.73;100379.59;4192095;28;20045;-63
2023/09/16 00:02:26;;;;;;;12.95;7.30;;;;;;;19.39;67.31;100380.47;4192582;28;20510;-64
2023/09/16 00:04:31;;;;;;;11.00;6.68;;;;;;;19.39;67.56;100379.59;4188241;28;20080;-64
2023/09/16 00:06:32;;;;;;;9.98;6.47;;;;;;;19.35;67.32;100382.31;4195403;28;20485;-63
2023/09/16 00:08:36;;;;;;;12.02;6.30;;;;;;;19.36;67.36;100381.41;4196826;28;20036;-63
2023/09/16 00:10:40;;;;;;;10.32;7.53;;;;;;;19.35;67.77;100371.75;4196031;28;21814;-64
2023/09/16 00:12:43;;;;;;;9.82;7.28;;;;;;;19.34;67.83;100374.44;4193812;28;20032;-63
2023/09/16 00:14:46;;;;;;;9.95;6.18;;;;;;;19.29;68.01;100366.63;4192960;28;20032;-64
2023/09/16 00:16:49;;;;;;;10.48;7.15;;;;;;;19.26;68.24;100377.25;4196292;28;20043;-64
2023/09/16 00:18:52;;;;;;;13.82;7.05;;;;;;;19.22;67.87;100380.00;4196681;28;20062;-64
2023/09/16 00:20:55;;;;;;;9.77;6.63;;;;;;;19.22;68.03;100369.44;4194031;28;20208;-64
2023/09/16 00:22:58;;;;;;;10.50;7.20;;;;;;;19.19;68.12;100376.50;4191303;28;20036;-64
2023/09/16 00:25:01;;;;;;;8.73;6.00;;;;;;;19.16;68.22;100363.41;4193137;28;20036;-64
2023/09/16 00:27:06;;;;;;;12.95;6.78;;;;;;;19.11;67.88;100361.78;4196457;28;20479;-64
2023/09/16 00:29:09;;;;;;;10.90;6.60;;;;;;;19.09;68.27;100361.81;4205011;28;20130;-64
2023/09/16 00:31:12;;;;;;;8.85;6.32;;;;;;;19.09;68.41;100368.88;4195043;28;21741;-63
2023/09/16 00:33:16;;;;;;;10.32;6.55;;;;;;;19.06;68.07;100369.78;4193139;28;20032;-64
2023/09/16 00:35:19;;;;;;;10.38;6.68;;;;;;;19.05;68.22;100361.91;4191426;28;20041;-63
2023/09/16 00:37:23;;;;;;;11.38;7.07;;;;;;;19.03;68.22;100361.97;4196578;28;20127;-64
2023/09/16 00:39:27;;;;;;;8.98;6.97;;;;;;;18.99;68.36;100362.91;4195213;28;20054;-64
2023/09/16 00:41:31;;;;;;;7.68;5.97;;;;;;;18.97;68.15;100372.63;4191092;28;20041;-64
2023/09/16 00:43:33;;;;;;;12.27;6.50;;;;;;;18.98;68.05;100366.44;4199894;28;20040;-64
2023/09/16 00:45:36;;;;;;;8.05;5.70;;;;;;;18.97;68.04;100368.22;4192942;28;20036;-64
2023/09/16 00:47:40;;;;;;;11.40;7.05;;;;;;;18.94;68.06;100359.50;4195788;28;20032;-64
2023/09/16 00:49:43;;;;;;;8.63;6.45;;;;;;;18.90;68.17;100365.78;4178902;28;20049;-63
2023/09/16 00:51:48;;;;;;;8.60;6.22;;;;;;;18.90;68.00;100365.78;4194098;28;20853;-63
2023/09/16 00:53:53;;;;;;;8.25;6.22;;;;;;;18.87;68.37;100358.78;4194558;28;20082;-63
2023/09/16 00:55:55;;;;;;;10.45;6.18;;;;;;;18.86;68.57;100361.44;4194915;28;20072;-63
2023/09/16 00:58:00;;;;;;;12.52;6.65;;;;;;;18.87;68.18;100368.47;4192952;28;20085;-63
2023/09/16 01:00:07;;;;;;;9.95;6.20;;;;;;;18.87;68.25;100373.75;4191163;28;20036;-63
2023/09/16 01:02:10;;;;;;;11.45;5.82;;;;;;;18.83;68.61;100370.25;4195574;28;20128;-64
2023/09/16 01:04:13;;;;;;;7.43;5.72;;;;;;;18.77;68.22;100357.22;4202135;28;20040;-63
2023/09/16 01:06:17;;;;;;;7.68;6.10;;;;;;;18.74;68.13;100358.16;4192444;28;20047;-63
2023/09/16 01:08:20;;;;;;;8.02;5.40;;;;;;;18.75;68.26;100348.47;4191384;28;20064;-63
2023/09/16 01:10:24;;;;;;;8.05;5.20;;;;;;;18.77;68.27;100347.53;4191554;28;20048;-63
2023/09/16 01:12:27;;;;;;;7.60;5.85;;;;;;;18.72;68.29;100357.31;4179190;28;20042;-63
2023/09/16 01:14:30;;;;;;;10.05;5.65;;;;;;;18.66;68.21;100360.06;4193849;28;20033;-63
2023/09/16 01:16:37;;;;;;;8.63;5.97;;;;;;;18.68;68.54;100366.19;4193771;28;20109;-63
2023/09/16 01:18:46;;;;;;;9.73;6.38;;;;;;;18.69;68.11;100360.03;4191290;28;20037;-63
2023/09/16 01:20:50;;;;;;;9.82;5.85;;;;;;;18.67;68.45;100365.34;4192059;28;20043;-63
2023/09/16 01:22:53;;;;;;;7.63;5.25;;;;;;;18.66;68.37;100358.31;4195580;28;20410;-63
2023/09/16 01:25:03;;;;;;;10.30;6.07;;;;;;;18.69;68.39;100362.66;4194368;28;20040;-63
2023/09/16 01:27:07;;;;;;;8.68;5.80;;;;;;;18.66;68.55;100362.69;4193818;28;20058;-63
2023/09/16 01:29:10;;;;;;;11.30;6.32;;;;;;;18.68;68.11;100360.91;4194726;28;20048;-63
2023/09/16 01:31:13;;;;;;;8.68;6.22;;;;;;;18.66;68.54;100368.84;4194691;28;20036;-63
2023/09/16 01:33:22;;;;;;;9.15;6.75;;;;;;;18.67;68.12;100367.06;4193758;28;20098;-63
2023/09/16 01:35:30;;;;;;;10.75;5.57;;;;;;;18.67;68.19;100361.81;4189509;28;20372;-63
2023/09/16 01:37:34;;;;;;;8.07;5.15;;;;;;;18.69;68.17;100362.66;4194669;28;20033;-63
2023/09/16 01:39:38;;;;;;;9.75;7.07;;;;;;;18.68;68.24;100368.81;4188361;28;20036;-63
2023/09/16 01:41:45;;;;;;;8.18;5.43;;;;;;;18.69;68.64;100373.19;4190890;28;20029;-63
2023/09/16 01:43:49;;;;;;;8.60;6.50;;;;;;;18.66;68.67;100373.22;4190957;28;20044;-63
2023/09/16 01:45:52;;;;;;;11.30;5.50;;;;;;;18.64;68.44;100362.72;4193457;28;20036;-63
2023/09/16 01:47:55;;;;;;;10.20;5.53;;;;;;;18.63;68.58;100374.19;4194656;28;20170;-63
2023/09/16 01:49:58;;;;;;;11.65;5.60;;;;;;;18.64;68.50;100368.00;4194490;28;20044;-63
2023/09/16 01:52:01;;;;;;;7.55;5.25;;;;;;;18.62;69.37;100369.81;4191356;28;20071;-63
2023/09/16 01:54:04;;;;;;;8.20;6.00;;;;;;;18.56;69.22;100374.31;4193156;28;20065;-63
2023/09/16 01:56:07;;;;;;;8.18;5.90;;;;;;;18.54;68.96;100376.97;4193910;28;20086;-63
2023/09/16 01:58:11;;;;;;;8.30;5.97;;;;;;;18.55;69.31;100372.59;4191620;28;20063;-63
2023/09/16 02:00:14;;;;;;;;;;;;;;;18.40;69.35;100373.75;4191610;28;20472;-63
2023/09/16 02:02:16;;;;;;;10.88;6.75;;;;;;;18.40;69.13;100377.28;4194219;28;20378;-63
2023/09/16 02:04:19;;;;;;;9.05;6.60;;;;;;;18.42;68.90;100372.84;4189119;28;20554;-63
2023/09/16 02:06:22;;;;;;;12.18;6.20;;;;;;;18.39;69.46;100372.91;4187642;28;20136;-63
2023/09/16 02:08:25;;;;;;;8.02;6.25;;;;;;;18.35;69.52;100376.47;4187142;28;20040;-63
2023/09/16 02:10:28;;;;;;;9.35;6.50;;;;;;;18.37;69.09;100379.09;4193354;28;20074;-63
2023/09/16 02:12:31;;;;;;;8.13;6.30;;;;;;;18.38;69.51;100373.78;4183702;28;20037;-63
2023/09/16 02:14:39;;;;;;;10.85;5.80;;;;;;;18.38;69.29;100371.16;4185257;28;20079;-62
2023/09/16 02:16:42;;;;;;;10.75;5.47;;;;;;;18.36;69.61;100380.00;4200281;28;20032;-63
2023/09/16 02:18:46;;;;;;;10.80;6.63;;;;;;;18.30;69.61;100378.34;4193689;28;20039;-62
2023/09/16 02:20:49;;;;;;;9.55;6.90;;;;;;;18.28;69.55;100378.38;4196383;28;20036;-63
2023/09/16 02:22:52;;;;;;;9.63;5.90;;;;;;;18.23;69.40;100388.09;4192637;28;20028;-63
2023/09/16 02:24:55;;;;;;;11.32;6.00;;;;;;;18.23;69.74;100376.72;4185324;28;20464;-63
2023/09/16 02:26:57;;;;;;;8.30;6.18;;;;;;;18.21;69.41;100384.66;4182323;28;20515;-62
2023/09/16 02:28:59;;;;;;;8.05;5.40;;;;;;;18.21;69.26;100383.75;4181910;28;20123;-63
2023/09/16 02:31:03;;;;;;;10.88;6.28;;;;;;;18.19;69.88;100386.44;4185311;28;20119;-64
2023/09/16 02:33:07;;;;;;;8.07;6.00;;;;;;;18.16;69.36;100390.88;4174711;28;20049;-64
2023/09/16 02:35:09;;;;;;;8.45;6.18;;;;;;;18.01;69.74;100387.63;4200745;28;20516;-64
2023/09/16 02:37:12;;;;;;;8.82;6.72;;;;;;;17.94;69.88;100394.75;4186253;28;20127;-63
2023/09/16 02:39:15;;;;;;;9.13;7.03;;;;;;;17.96;70.12;100389.50;4204991;28;20036;-63
2023/09/16 02:41:19;;;;;;;8.52;6.43;;;;;;;17.97;69.93;100399.09;4183504;28;20627;-64
2023/09/16 02:43:25;;;;;;;9.50;6.15;;;;;;;18.00;69.75;100400.81;4193516;28;20071;-63
2023/09/16 02:45:28;;;;;;;8.40;6.15;;;;;;;18.00;69.76;100404.31;4192552;28;20121;-63
2023/09/16 02:47:33;;;;;;;11.05;7.45;;;;;;;18.03;69.75;100406.03;4184455;28;20036;-64
2023/09/16 02:49:37;;;;;;;8.95;6.35;;;;;;;18.02;69.79;100405.16;4191474;28;20036;-63
2023/09/16 02:51:40;;;;;;;7.35;5.60;;;;;;;18.05;70.02;100399.00;4182019;28;20036;-63
2023/09/16 02:53:44;;;;;;;9.45;6.60;;;;;;;18.05;69.92;100406.88;4193840;28;20130;-63
2023/09/16 02:55:47;;;;;;;8.02;6.20;;;;;;;18.04;69.97;100413.03;4179831;28;20067;-63
2023/09/16 02:57:50;;;;;;;9.15;6.43;;;;;;;18.03;70.17;100411.28;4192760;28;20037;-63
2023/09/16 02:59:53;;;;;;;10.88;6.43;;;;;;;18.02;70.22;100410.44;4193633;28;20102;-64
2023/09/16 03:01:56;;;;;;;8.82;6.03;;;;;;;17.99;70.21;100399.06;4199321;28;20541;-63
2023/09/16 03:04:01;;;;;;;9.90;6.75;;;;;;;17.92;70.52;100403.59;4187666;28;20037;-63
2023/09/16 03:06:04;;;;;;;9.40;6.40;;;;;;;17.90;70.30;100411.50;4183124;28;20036;-64
2023/09/16 03:08:07;;;;;;;9.07;6.28;;;;;;;17.89;70.80;100414.13;4189841;28;20040;-64
2023/09/16 03:10:11;;;;;;;9.68;6.55;;;;;;;17.88;70.69;100412.38;4184693;28;20043;-63
2023/09/16 03:12:15;;;;;;;9.20;6.68;;;;;;;17.89;70.62;100404.47;4183129;28;20077;-63
2023/09/16 03:14:18;;;;;;;10.80;6.75;;;;;;;17.89;70.39;100398.34;4193572;28;20044;-63
2023/09/16 03:16:23;;;;;;;9.48;6.60;;;;;;;17.86;70.56;100403.63;4188316;28;20442;-63
2023/09/16 03:18:32;;;;;;;10.75;6.30;;;;;;;17.85;70.27;100405.41;4183025;28;20044;-63
2023/09/16 03:20:36;;;;;;;12.82;6.47;;;;;;;17.85;70.20;100397.53;4192788;28;20048;-63
2023/09/16 03:22:39;;;;;;;8.90;6.50;;;;;;;17.82;70.67;100397.56;4183926;28;20073;-64
2023/09/16 03:24:43;;;;;;;8.70;6.00;;;;;;;17.82;70.53;100392.31;4180288;28;20128;-63
2023/09/16 03:26:46;;;;;;;9.95;6.60;;;;;;;17.80;70.45;100394.13;4192309;28;20481;-63
2023/09/16 03:28:51;;;;;;;9.15;6.47;;;;;;;17.78;70.52;100393.25;4192754;28;20565;-63
2023/09/16 03:30:58;;;;;;;15.20;6.95;;;;;;;17.76;70.36;100382.75;4184903;28;20047;-63
2023/09/16 03:33:02;;;;;;;10.45;6.78;;;;;;;17.76;70.34;100393.28;4184174;28;20044;-63
2023/09/16 03:35:06;;;;;;;10.68;7.47;;;;;;;17.75;70.64;100390.69;4198980;28;20093;-64
2023/09/16 03:37:10;;;;;;;10.40;6.55;;;;;;;17.72;70.62;100391.59;4203514;28;20063;-64
2023/09/16 03:39:15;;;;;;;;;;;;;;;17.60;71.14;100390.03;4187707;28;20123;-64
2023/09/16 03:41:17;;;;;;;9.95;6.85;;;;;;;17.65;71.06;100389.09;4186789;28;19924;-64
2023/09/16 03:43:28;;;;;;;8.02;6.57;;;;;;;17.67;70.79;100385.56;4195320;28;20037;-63
2023/09/16 03:45:31;;;;;;;9.15;6.30;;;;;;;17.66;70.67;100383.81;4196463;28;20068;-64
2023/09/16 03:47:36;;;;;;;11.30;7.03;;;;;;;17.65;70.54;100382.06;4195585;28;20037;-63
2023/09/16 03:49:38;;;;;;;8.25;6.13;;;;;;;17.63;70.48;100375.97;4185448;28;20036;-63
2023/09/16 03:51:41;;;;;;;8.82;6.28;;;;;;;17.61;70.95;100372.53;4201149;28;20119;-63
2023/09/16 03:53:48;;;;;;;10.82;6.35;;;;;;;17.61;71.08;100377.78;4196714;28;20052;-63
2023/09/16 03:55:51;;;;;;;8.60;6.85;;;;;;;17.60;70.97;100376.88;4186631;28;20037;-63
2023/09/16 03:57:54;;;;;;;9.07;6.50;;;;;;;17.59;70.90;100376.91;4195609;28;20514;-63
2023/09/16 03:59:57;;;;;;;10.95;7.78;;;;;;;17.57;71.12;100376.94;4193306;28;20396;-63
2023/09/16 04:02:00;;;;;;;10.68;6.85;;;;;;;17.56;71.36;100374.34;4196258;28;20043;-63
2023/09/16 04:04:03;;;;;;;10.47;6.90;;;;;;;17.57;71.02;100376.09;4199844;28;20451;-63
2023/09/16 04:06:06;;;;;;;9.43;7.00;;;;;;;17.58;71.21;100377.78;4193281;28;20321;-63
2023/09/16 04:08:09;;;;;;;11.38;6.57;;;;;;;17.59;71.18;100375.13;4186559;28;20037;-63
2023/09/16 04:10:14;;;;;;;10.23;6.80;;;;;;;17.60;70.99;100370.78;4190125;28;20040;-63
2023/09/16 04:12:17;;;;;;;8.45;6.20;;;;;;;17.55;71.38;100367.34;4195094;28;20407;-64
2023/09/16 04:14:20;;;;;;;10.48;6.40;;;;;;;17.54;71.27;100366.47;4201648;28;20072;-64
2023/09/16 04:16:25;;;;;;;12.63;7.50;;;;;;;17.54;71.26;100373.50;4195300;28;20083;-64
2023/09/16 04:18:29;;;;;;;8.23;6.30;;;;;;;17.53;71.60;100370.00;4186602;28;20049;-64
2023/09/16 04:20:32;;;;;;;9.57;6.78;;;;;;;17.53;71.42;100366.50;4184822;28;20037;-64
2023/09/16 04:22:35;;;;;;;8.70;6.87;;;;;;;17.51;71.59;100368.28;4183297;28;20434;-63
2023/09/16 04:24:38;;;;;;;10.32;6.90;;;;;;;17.51;71.57;100365.63;4194583;28;20707;-63
2023/09/16 04:26:43;;;;;;;9.20;7.22;;;;;;;17.51;71.29;100363.91;4196691;28;20561;-63
2023/09/16 04:28:46;;;;;;;9.60;6.43;;;;;;;17.48;71.22;100363.06;4188797;28;20047;-63
2023/09/16 04:30:51;;;;;;;8.90;6.82;;;;;;;17.46;71.47;100368.34;4190156;28;20032;-63
2023/09/16 04:32:55;;;;;;;9.38;6.03;;;;;;;17.45;71.64;100361.38;4194821;28;20558;-63
2023/09/16 04:34:59;;;;;;;9.35;6.70;;;;;;;17.43;71.65;100358.78;4200921;28;20479;-63
2023/09/16 04:37:05;;;;;;;10.23;6.28;;;;;;;17.41;71.69;100364.94;4186811;28;20511;-63
2023/09/16 04:39:08;;;;;;;11.98;6.70;;;;;;;17.37;71.81;100373.75;4203407;28;20032;-63
2023/09/16 04:41:13;;;;;;;8.73;6.32;;;;;;;17.37;72.02;100366.72;4184714;28;20376;-63
2023/09/16 04:43:18;;;;;;;8.98;6.40;;;;;;;17.31;71.90;100364.22;4203906;28;20142;-63
2023/09/16 04:45:21;;;;;;;;;;;;;;;17.19;72.49;100365.25;4187239;28;20822;-63
2023/09/16 04:47:23;;;;;;;9.68;6.88;;;;;;;17.22;72.37;100366.97;4197268;28;19963;-63
2023/09/16 04:49:26;;;;;;;10.40;6.30;;;;;;;17.26;72.28;100359.03;4186167;28;20484;-63
2023/09/16 04:51:28;;;;;;;11.68;5.97;;;;;;;17.28;72.50;100359.00;4189467;28;20040;-63
2023/09/16 04:53:32;;;;;;;9.85;7.35;;;;;;;17.27;72.46;100358.13;4193630;28;20106;-63
2023/09/16 04:55:35;;;;;;;8.30;6.45;;;;;;;17.27;72.53;100359.88;4199697;28;20078;-63
2023/09/16 04:57:38;;;;;;;10.05;6.93;;;;;;;17.27;72.32;100352.88;4195020;28;20087;-64
2023/09/16 04:59:45;;;;;;;10.35;6.90;;;;;;;17.26;72.40;100351.16;4195567;28;20150;-63
2023/09/16 05:01:50;;;;;;;10.93;7.32;;;;;;;17.21;72.62;100352.09;4194380;28;20407;-63
2023/09/16 05:03:53;;;;;;;8.02;5.82;;;;;;;17.20;72.78;100350.34;4202855;28;20094;-63
2023/09/16 05:05:56;;;;;;;11.43;7.10;;;;;;;17.21;72.63;100346.84;4188090;28;20048;-61
2023/09/16 05:08:03;;;;;;;8.98;5.90;;;;;;;17.43;73.86;100350.00;4186868;28;20768;-59
2023/09/16 05:10:07;;;;;;;7.63;5.50;;;;;;;17.86;73.63;100346.66;4190854;28;20059;-59
2023/09/16 05:12:10;;;;;;;15.23;6.22;;;;;;;18.14;72.15;100354.94;4189789;28;20044;-59
2023/09/16 05:14:13;;;;;;;13.68;6.07;;;;;;;18.36;71.83;100346.63;4193314;28;20036;-59
2023/09/16 05:16:17;;;;;;;13.63;5.90;;;;;;;18.57;70.61;100345.31;4189843;28;20395;-59
2023/09/16 05:18:20;;;;;;;11.70;6.18;;;;;;;18.68;69.99;100342.50;4186310;28;20482;-59
2023/09/16 05:20:23;;;;;;;11.18;6.10;;;;;;;18.78;69.10;100344.03;4201038;28;20048;-59
2023/09/16 05:22:27;;;;;;;10.82;5.88;;;;;;;18.83;69.03;100347.41;4182675;28;20037;-59
2023/09/16 05:24:31;;;;;;;9.52;6.03;;;;;;;18.83;68.59;100342.13;4188273;28;20519;-59
2023/09/16 05:26:34;;;;;;;9.50;5.90;;;;;;;18.91;68.32;100354.31;4184674;28;20049;-59
2023/09/16 05:28:37;;;;;;;9.95;6.15;;;;;;;18.96;67.61;100347.19;4193985;28;20494;-59
2023/09/16 05:30:42;;;;;;;11.07;6.07;;;;;;;18.95;67.71;100350.72;4193750;28;20045;-59
2023/09/16 05:32:46;;;;;;;9.75;5.85;;;;;;;18.96;67.65;100348.03;4185279;28;20112;-59
2023/09/16 05:34:53;;;;;;;7.75;5.60;;;;;;;18.97;67.30;100354.19;4193939;28;20036;-59
2023/09/16 05:36:56;;;;;;;10.32;6.22;;;;;;;18.96;67.80;100348.03;4185963;28;20061;-59
2023/09/16 05:39:00;;;;;;;8.07;5.38;;;;;;;18.98;67.58;100353.28;4203101;28;20051;-59
2023/09/16 05:41:03;;;;;;;9.40;6.25;;;;;;;18.91;66.89;100354.31;4193853;28;20343;-63
2023/09/16 05:43:06;;;;;;;11.07;7.45;;;;;;;18.64;67.51;100359.25;4184293;28;20040;-62
2023/09/16 05:45:10;;;;;;;11.48;8.05;;;;;;;18.41;68.04;100359.69;4184516;28;20044;-61
2023/09/16 05:47:14;;;;;;;10.73;6.97;;;;;;;18.19;68.86;100359.25;4198427;28;20036;-63
2023/09/16 05:49:20;;;;;;;10.70;6.60;;;;;;;18.07;69.03;100360.34;4198751;28;20529;-63
2023/09/16 05:51:22;;;;;;;14.32;7.55;;;;;;;17.95;69.65;100354.41;4210974;28;20035;-62
2023/09/16 05:53:29;;;;;;;11.90;6.45;;;;;;;17.88;69.72;100365.03;4192370;28;20064;-62
2023/09/16 05:55:38;;;;;;;8.50;6.68;;;;;;;17.86;69.97;100361.56;4195669;28;20033;-62
2023/09/16 05:57:44;;;;;;;8.40;6.43;;;;;;;17.80;70.25;100357.31;4199990;28;20469;-60
2023/09/16 05:59:47;;;;;;;10.70;7.32;;;;;;;17.78;70.36;100359.06;4200122;28;20063;-62
2023/09/16 06:01:50;;;;;;;10.25;7.43;;;;;;;17.78;69.97;100359.97;4202543;28;20040;-64
2023/09/16 06:03:53;;;;;;;13.25;7.03;;;;;;;17.77;70.05;100366.09;4209455;28;20046;-62
2023/09/16 06:05:59;;;;;;;8.88;6.43;;;;;;;17.77;70.15;100360.84;4199836;28;20067;-64
2023/09/16 06:08:03;;;;;;;11.15;7.43;;;;;;;17.75;70.35;100365.25;4191037;28;20036;-62
2023/09/16 06:10:06;;;;;;;10.48;7.88;;;;;;;17.75;70.35;100365.25;4199002;28;20082;-62
2023/09/16 06:12:10;;;;;;;11.10;6.95;;;;;;;17.76;70.31;100369.63;4198301;28;20036;-62
2023/09/16 06:14:13;;;;;;;12.82;7.18;;;;;;;17.77;70.59;100363.47;4193065;28;20483;-62
2023/09/16 06:16:15;;;;;;;12.25;6.78;;;;;;;17.80;70.34;100366.03;4193683;28;20064;-62
2023/09/16 06:18:19;;;;;;;10.23;7.13;;;;;;;17.84;70.29;100372.09;4196769;28;20056;-63
2023/09/16 06:20:22;;;;;;;11.10;7.03;;;;;;;17.86;70.67;100380.84;4188674;28;20032;-63
2023/09/16 06:22:26;;;;;;;9.15;7.65;;;;;;;17.94;70.43;100375.47;4191879;28;20134;-63
2023/09/16 06:24:29;;;;;;;;;;;;;;;17.89;70.96;100374.69;4196542;28;20037;-62
2023/09/16 06:26:32;;;;;;;12.55;8.65;;;;;;;17.94;70.40;100378.97;4196442;28;19971;-63
2023/09/16 06:28:35;;;;;;;12.15;7.85;;;;;;;18.00;70.39;100385.03;4196404;28;20086;-63
2023/09/16 06:30:39;;;;;;;8.80;6.53;;;;;;;18.02;70.60;100373.59;4195777;28;20500;-62
2023/09/16 06:32:41;;;;;;;14.07;8.68;;;;;;;18.09;70.47;100384.84;4197702;28;20055;-63
2023/09/16 06:34:44;;;;;;;16.80;8.75;;;;;;;18.21;69.83;100373.25;4195303;28;20041;-63
2023/09/16 06:36:46;;;;;;;11.52;7.70;;;;;;;18.19;70.22;100382.94;4209318;28;20546;-63
2023/09/16 06:38:51;;;;;;;9.90;7.57;;;;;;;18.21;70.21;100382.03;4192391;28;20136;-63
2023/09/16 06:40:54;;;;;;;10.82;7.88;;;;;;;18.24;70.20;100386.38;4189506;28;20032;-63
2023/09/16 06:42:57;;;;;;;11.60;7.70;;;;;;;18.28;70.05;100374.84;4192103;28;20458;-63
2023/09/16 06:45:04;;;;;;;13.27;8.30;;;;;;;18.33;70.02;100377.44;4200871;28;20040;-63
2023/09/16 06:47:07;;;;;;;10.17;7.77;;;;;;;18.36;70.14;100380.84;4191697;28;20039;-63
2023/09/16 06:49:10;;;;;;;14.73;7.53;;;;;;;18.40;70.03;100374.66;4193708;28;20060;-63
2023/09/16 06:51:13;;;;;;;9.80;7.82;;;;;;;18.43;69.97;100379.84;4190230;28;20491;-63
2023/09/16 06:53:16;;;;;;;9.43;7.07;;;;;;;18.48;69.61;100366.59;4189063;28;20423;-63
2023/09/16 06:55:20;;;;;;;8.90;6.35;;;;;;;18.57;69.22;100371.66;4188970;28;20044;-63
2023/09/16 06:57:23;;;;;;;12.13;8.20;;;;;;;18.71;68.43;100381.06;4181075;28;20037;-63
2023/09/16 06:59:28;;;;;;;11.48;8.65;;;;;;;18.74;68.08;100373.94;4183601;28;20044;-63
2023/09/16 07:01:31;;;;;;;10.55;6.95;;;;;;;18.73;68.34;100379.25;4184992;28;20040;-63
2023/09/16 07:03:34;;;;;;;10.57;8.18;;;;;;;18.75;68.76;100369.53;4189029;28;20189;-63
2023/09/16 07:05:37;;;;;;;10.65;7.25;;;;;;;18.72;68.58;100370.50;4222347;22;20043;-65
2023/09/16 07:07:41;;;;;;;13.18;8.98;;;;;;;18.86;68.30;100377.22;4218672;28;20038;-63
2023/09/16 07:09:44;;;;;;;16.63;9.45;;;;;;;18.92;68.25;100377.97;4211544;28;20123;-63
2023/09/16 07:11:48;;;;;;;17.23;10.32;;;;;;;18.87;68.09;100379.00;4211353;28;20047;-63
2023/09/16 07:13:53;;;;;;;11.27;9.38;;;;;;;18.84;67.88;100386.03;4212190;28;20109;-63
2023/09/16 07:15:57;;;;;;;12.35;8.52;;;;;;;18.94;68.02;100385.84;4213855;28;20086;-63
2023/09/16 07:18:00;;;;;;;14.52;9.40;;;;;;;18.91;68.39;100392.06;4210708;28;20038;-64
2023/09/16 07:20:04;;;;;;;13.05;8.38;;;;;;;18.91;68.22;100393.81;4201933;28;20106;-63
2023/09/16 07:22:06;;;;;;;14.50;11.73;;;;;;;19.06;67.43;100390.00;4207159;28;20089;-63
2023/09/16 07:24:09;;;;;;;17.27;10.93;;;;;;;19.11;67.61;100398.66;4213649;28;20038;-63
2023/09/16 07:26:12;;;;;;;15.15;11.52;;;;;;;19.22;66.59;100396.66;4216764;28;20057;-63
2023/09/16 07:28:16;;;;;;;11.95;9.88;;;;;;;19.08;67.30;100399.59;4214516;28;20063;-63
2023/09/16 07:30:19;;;;;;;15.35;10.13;;;;;;;19.08;67.92;100404.00;4210963;28;20253;-64
2023/09/16 07:32:21;;;;;;;11.90;8.75;;;;;;;19.12;67.54;100396.00;4219718;28;20398;-64
2023/09/16 07:34:25;;;;;;;13.07;8.60;;;;;;;19.21;68.07;100404.59;4218734;28;20075;-63
2023/09/16 07:36:28;;;;;;;12.48;8.93;;;;;;;19.29;67.33;100407.91;4212608;28;20036;-63
2023/09/16 07:38:31;;;;;;;14.82;8.27;;;;;;;19.39;67.50;100404.19;4221589;28;20110;-62
2023/09/16 07:40:35;;;;;;;13.55;9.88;;;;;;;19.49;66.93;100405.72;4216842;28;20047;-62
2023/09/16 07:42:38;;;;;;;12.95;8.50;;;;;;;19.59;67.27;100408.13;4215704;28;20042;-62
2023/09/16 07:44:43;;;;;;;13.90;9.90;;;;;;;19.60;67.04;100401.97;4219075;28;20480;-63
2023/09/16 07:46:48;;;;;;;14.45;10.05;;;;;;;19.65;66.51;100400.06;4220516;28;20044;-62
2023/09/16 07:48:51;;;;;;;14.55;10.98;;;;;;;19.75;66.96;100406.84;4218311;28;20587;-62
2023/09/16 07:50:55;;;;;;;15.82;12.40;;;;;;;19.75;66.24;100406.84;4220285;28;20043;-62
2023/09/16 07:52:58;;;;;;;16.30;10.00;;;;;;;19.78;66.15;100401.50;4219786;28;20487;-63
2023/09/16 07:55:01;;;;;;;18.00;13.60;;;;;;;19.95;65.16;100406.38;4222495;28;20093;-63
2023/09/16 07:57:04;;;;;;;16.80;13.38;;;;;;;19.96;65.07;100407.22;4219667;28;20047;-62
2023/09/16 07:59:06;;;;;;;14.38;12.68;;;;;;;19.96;64.89;100397.56;4214287;28;20119;-62
2023/09/16 08:01:11;;;;;;;16.95;10.85;;;;;;;19.90;65.05;100400.34;4219360;28;20036;-62
2023/09/16 08:03:14;;;;;;;18.08;15.38;;;;;;;20.03;64.68;100409.69;4220196;28;20534;-62
2023/09/16 08:05:17;;;;;;;14.65;11.38;;;;;;;20.00;64.95;100408.91;4211884;28;20059;-62
2023/09/16 08:07:20;;;;;;;15.30;12.73;;;;;;;20.11;64.31;100412.13;4212720;28;20498;-61
2023/09/16 08:09:23;;;;;;;18.05;11.32;;;;;;;20.11;64.59;100414.78;4217607;28;20036;-62
2023/09/16 08:11:26;;;;;;;15.23;11.63;;;;;;;20.19;65.41;100425.13;4219801;28;20096;-62
2023/09/16 08:13:29;;;;;;;14.13;10.63;;;;;;;20.22;65.47;100425.91;4215612;28;20402;-62
2023/09/16 08:15:32;;;;;;;15.85;10.70;;;;;;;20.32;65.33;100425.66;4217493;28;20035;-62
2023/09/16 08:17:37;;;;;;;12.55;10.15;;;;;;;20.37;65.47;100426.38;4218259;28;20096;-62
2023/09/16 08:19:40;;;;;;;20.00;12.65;;;;;;;20.45;64.95;100426.22;4217170;28;20042;-62
2023/09/16 08:21:43;;;;;;;15.82;11.10;;;;;;;20.51;64.60;100432.16;4203773;28;20431;-62
2023/09/16 08:23:46;;;;;;;15.02;11.13;;;;;;;20.59;64.80;100426.69;4217880;28;20118;-61
2023/09/16 08:25:48;;;;;;;14.38;11.13;;;;;;;20.63;64.64;100428.31;4220465;28;20070;-65
2023/09/16 08:27:51;;;;;;;14.57;11.30;;;;;;;20.66;64.59;100428.28;4219094;28;20059;-62
2023/09/16 08:29:55;;;;;;;15.90;10.03;;;;;;;20.73;64.33;100431.59;4221198;28;20063;-62
2023/09/16 08:31:57;;;;;;;16.00;12.55;;;;;;;20.74;64.24;100431.56;4222677;28;20089;-62
2023/09/16 08:34:02;;;;;;;16.42;11.93;;;;;;;20.78;63.67;100440.28;4221362;28;20047;-62
2023/09/16 08:36:05;;;;;;;21.40;15.75;;;;;;;20.90;62.62;100437.28;4216368;28;20495;-62
2023/09/16 08:38:09;;;;;;;17.35;14.23;;;;;;;20.96;62.57;100432.75;4206962;28;20046;-61
2023/09/16 08:40:12;;;;;;;15.80;11.50;;;;;;;20.97;62.53;100434.44;4220905;28;20036;-61
2023/09/16 08:42:21;;;;;;;19.42;12.15;;;;;;;20.98;62.85;100439.69;4216802;28;20043;-61
2023/09/16 08:44:28;;;;;;;16.15;12.13;;;;;;;21.06;62.73;100442.13;4223385;28;20228;-61
2023/09/16 08:46:34;;;;;;;15.90;12.45;;;;;;;21.15;62.65;100446.28;4221369;28;20036;-61
2023/09/16 08:48:42;;;;;;;15.88;12.50;;;;;;;21.23;62.34;100439.84;4220013;28;20031;-61
2023/09/16 08:50:49;;;;;;;17.42;11.98;;;;;;;21.31;62.33;100446.69;4219749;28;20514;-61
2023/09/16 08:52:53;;;;;;;16.50;13.57;;;;;;;21.40;61.45;100441.09;4221161;28;20080;-61
2023/09/16 08:54:58;;;;;;;14.13;11.40;;;;;;;21.42;61.77;100437.50;4222546;28;20040;-61
2023/09/16 08:57:03;;;;;;;12.63;9.90;;;;;;;21.47;61.93;100437.34;4223412;28;20090;-61
2023/09/16 08:59:06;;;;;;;16.00;11.57;;;;;;;21.54;61.75;100433.63;4219875;28;20038;-61
2023/09/16 09:01:11;;;;;;;14.25;11.32;;;;;;;21.63;61.71;100435.13;4221148;28;20055;-61
2023/09/16 09:03:14;;;;;;;14.60;11.02;;;;;;;21.69;61.63;100437.56;4219354;28;20474;-61
2023/09/16 09:05:17;;;;;;;16.33;12.32;;;;;;;21.76;61.54;100433.78;4220119;28;20036;-61
2023/09/16 09:07:26;;;;;;;17.98;13.30;;;;;;;21.77;61.41;100442.59;4220350;28;20051;-61
2023/09/16 09:09:30;;;;;;;16.95;14.13;;;;;;;21.80;60.98;100437.22;4220430;28;20028;-61
2023/09/16 09:11:34;;;;;;;15.82;12.98;;;;;;;21.83;61.09;100429.19;4221649;28;20036;-61
2023/09/16 09:13:37;;;;;;;17.67;13.07;;;;;;;21.95;60.97;100430.56;4213574;28;20357;-61
2023/09/16 09:15:41;;;;;;;20.45;15.35;;;;;;;22.16;60.54;100421.00;4216137;28;20122;-61
2023/09/16 09:17:47;;;;;;;17.73;14.88;;;;;;;22.20;59.94;100422.63;4219936;28;20127;-61
2023/09/16 09:19:52;;;;;;;20.92;16.02;;;;;;;22.30;59.80;100424.03;4218954;28;20040;-61
2023/09/16 09:21:57;;;;;;;19.45;14.73;;;;;;;22.31;59.63;100420.47;4209256;28;20035;-61
2023/09/16 09:24:01;;;;;;;18.10;13.10;;;;;;;22.39;59.78;100424.69;4200861;28;20123;-61
2023/09/16 09:26:04;;;;;;;20.58;12.23;;;;;;;22.44;59.84;100422.72;4181115;28;20128;-61
2023/09/16 09:28:07;;;;;;;16.63;12.68;;;;;;;22.54;59.40;100429.41;4213119;28;20067;-61
2023/09/16 09:30:11;;;;;;;19.33;14.60;;;;;;;22.63;59.20;100418.50;4204587;28;20056;-61